createdAt,value
2023-04-18T00:01:09.910Z,9.00
2023-04-18T00:03:40.905Z,6.90
2023-04-18T00:06:11.574Z,10.50
2023-04-18T00:08:40.022Z,8.40
2023-04-18T00:11:08.596Z,11.80
2023-04-18T00:13:38.678Z,7.30
2023-04-18T00:16:08.740Z,12.00
2023-04-18T00:18:37.821Z,11.00
2023-04-18T00:21:07.014Z,10.20
2023-04-18T00:23:35.464Z,8.20
2023-04-18T00:26:03.474Z,11.30
2023-04-18T00:28:31.513Z,8.50
2023-04-18T00:30:59.636Z,7.50
2023-04-18T00:33:27.663Z,8.50
2023-04-18T00:35:55.722Z,10.00
2023-04-18T00:38:23.669Z,10.50
2023-04-18T00:40:51.727Z,10.20
2023-04-18T00:43:23.313Z,8.60
2023-04-18T00:45:51.445Z,10.50
2023-04-18T00:48:19.479Z,10.90
2023-04-18T00:50:47.442Z,9.50
2023-04-18T00:53:15.596Z,9.40
2023-04-18T00:55:44.307Z,8.80
2023-04-18T00:58:12.602Z,9.30
2023-04-18T01:00:41.057Z,7.50
2023-04-18T01:03:11.010Z,11.20
2023-04-18T01:05:39.836Z,6.90
2023-04-18T01:08:10.843Z,10.20
2023-04-18T01:10:39.071Z,9.40
2023-04-18T01:13:14.467Z,8.80
2023-04-18T01:15:43.381Z,9.60
2023-04-18T01:18:12.016Z,10.40
2023-04-18T01:20:46.799Z,9.70
2023-04-18T01:23:15.762Z,8.80
2023-04-18T01:25:44.285Z,9.80
2023-04-18T01:28:14.097Z,9.50
2023-04-18T01:30:42.384Z,9.60
2023-04-18T01:33:11.607Z,10.50
2023-04-18T01:35:39.572Z,6.00
2023-04-18T01:38:07.550Z,6.60
2023-04-18T01:40:35.867Z,10.10
2023-04-18T01:43:03.924Z,8.90
2023-04-18T01:45:32.397Z,9.60
2023-04-18T01:48:00.399Z,8.80
2023-04-18T01:50:28.500Z,9.90
2023-04-18T01:52:56.636Z,7.40
2023-04-18T01:55:24.609Z,10.20
2023-04-18T01:57:55.927Z,7.50
2023-04-18T02:00:23.920Z,9.60
2023-04-18T02:02:52.458Z,7.80
2023-04-18T02:05:22.434Z,7.40
2023-04-18T02:07:50.854Z,8.60
2023-04-18T02:10:19.393Z,8.70
2023-04-18T02:12:47.566Z,6.20
2023-04-18T02:15:15.761Z,9.20
2023-04-18T02:17:43.768Z,8.20
2023-04-18T02:20:11.748Z,5.10
2023-04-18T02:22:39.784Z,9.60
2023-04-18T02:25:08.419Z,9.10
2023-04-18T02:27:36.616Z,8.40
2023-04-18T02:30:05.043Z,6.60
2023-04-18T02:32:35.446Z,7.90
2023-04-18T02:35:03.697Z,7.80
2023-04-18T02:37:31.648Z,7.00
2023-04-18T02:39:59.661Z,9.60
2023-04-18T02:42:31.603Z,10.40
2023-04-18T02:44:59.610Z,7.30
2023-04-18T02:47:28.111Z,6.50
2023-04-18T02:49:56.267Z,6.30
2023-04-18T02:52:25.618Z,9.10
2023-04-18T02:54:54.410Z,9.80
2023-04-18T02:57:26.183Z,9.50
2023-04-18T03:00:16.118Z,11.30
2023-04-18T03:02:58.582Z,8.90
2023-04-18T03:05:46.850Z,10.90
2023-04-18T03:08:15.181Z,7.90
2023-04-18T03:10:43.349Z,8.60
2023-04-18T03:13:11.876Z,7.70
2023-04-18T03:15:40.194Z,10.20
2023-04-18T03:18:09.450Z,12.30
2023-04-18T03:20:39.222Z,8.90
2023-04-18T03:23:08.388Z,9.30
2023-04-18T03:25:36.506Z,9.80
2023-04-18T03:28:05.330Z,9.60
2023-04-18T03:30:33.578Z,8.90
2023-04-18T03:33:03.151Z,10.30
2023-04-18T03:35:31.741Z,8.00
2023-04-18T03:37:59.824Z,10.20
2023-04-18T03:40:33.097Z,9.40
2023-04-18T03:43:06.276Z,7.20
2023-04-18T03:45:34.357Z,9.20
2023-04-18T03:48:02.607Z,8.80
2023-04-18T03:50:32.498Z,7.80
2023-04-18T03:53:02.059Z,9.40
2023-04-18T03:55:33.338Z,9.30
2023-04-18T03:58:02.310Z,7.60
2023-04-18T04:00:30.977Z,8.20
2023-04-18T04:03:02.086Z,8.20
2023-04-18T04:05:30.562Z,9.60
2023-04-18T04:07:58.578Z,8.60
2023-04-18T04:10:26.785Z,11.50
2023-04-18T04:12:54.959Z,8.10
2023-04-18T04:15:23.279Z,8.40
2023-04-18T04:17:56.370Z,8.30
2023-04-18T04:20:25.917Z,9.00
2023-04-18T04:23:01.515Z,7.90
2023-04-18T04:25:29.972Z,9.90
2023-04-18T04:28:02.104Z,9.20
2023-04-18T04:30:30.667Z,8.80
2023-04-18T04:33:02.059Z,8.40
2023-04-18T04:35:32.920Z,9.60
2023-04-18T04:38:02.176Z,8.20
2023-04-18T04:40:40.172Z,9.00
2023-04-18T04:43:17.572Z,10.10
2023-04-18T04:45:53.284Z,8.70
2023-04-18T04:48:25.542Z,10.20
2023-04-18T04:50:59.924Z,9.00
2023-04-18T04:53:32.016Z,7.90
2023-04-18T04:56:02.592Z,8.90
2023-04-18T04:58:33.960Z,8.00
2023-04-18T05:01:08.060Z,9.50
2023-04-18T05:03:38.073Z,8.90
2023-04-18T05:06:07.696Z,7.60
2023-04-18T05:08:36.573Z,7.30
2023-04-18T05:11:06.763Z,6.70
2023-04-18T05:13:36.343Z,9.50
2023-04-18T05:16:05.438Z,7.40
2023-04-18T05:18:42.289Z,8.40
2023-04-18T05:21:21.115Z,8.30
2023-04-18T05:23:50.122Z,10.50
2023-04-18T05:26:23.540Z,8.20
2023-04-18T05:28:53.003Z,9.40
2023-04-18T05:31:24.445Z,9.50
2023-04-18T05:33:54.690Z,9.50
2023-04-18T05:36:22.764Z,10.00
2023-04-18T05:38:51.126Z,8.50
2023-04-18T05:41:19.176Z,9.90
2023-04-18T05:44:01.923Z,9.50
2023-04-18T05:46:36.269Z,7.40
2023-04-18T05:49:04.466Z,6.80
2023-04-18T05:51:32.863Z,9.20
2023-04-18T05:54:07.404Z,7.90
2023-04-18T05:56:40.650Z,10.20
2023-04-18T05:59:08.831Z,8.60
2023-04-18T06:01:36.795Z,8.30
2023-04-18T06:04:05.067Z,8.00
2023-04-18T06:06:33.385Z,9.00
2023-04-18T06:09:01.435Z,9.00
2023-04-18T06:11:35.719Z,8.10
2023-04-18T06:14:03.803Z,9.50
2023-04-18T06:16:40.599Z,10.60
2023-04-18T06:19:11.244Z,9.60
2023-04-18T06:21:42.961Z,9.30
2023-04-18T06:24:11.210Z,7.70
2023-04-18T06:26:39.227Z,8.10
2023-04-18T06:29:07.292Z,9.80
2023-04-18T06:31:35.468Z,8.90
2023-04-18T06:34:03.568Z,9.70
2023-04-18T06:36:31.709Z,10.30
2023-04-18T06:38:59.665Z,8.10
2023-04-18T06:41:27.740Z,8.20
2023-04-18T06:44:03.375Z,9.20
2023-04-18T06:46:33.266Z,9.10
2023-04-18T06:49:01.251Z,8.10
2023-04-18T06:51:29.343Z,9.90
2023-04-18T06:53:57.342Z,8.50
2023-04-18T06:56:25.463Z,11.10
2023-04-18T06:58:53.452Z,10.50
2023-04-18T07:01:21.536Z,9.70
2023-04-18T07:03:49.601Z,9.00
2023-04-18T07:06:17.856Z,10.20
2023-04-18T07:08:45.883Z,8.00
2023-04-18T07:11:13.900Z,6.30
2023-04-18T07:13:41.913Z,9.70
2023-04-18T07:16:09.875Z,7.20
2023-04-18T07:18:38.732Z,7.90
2023-04-18T07:21:09.874Z,7.40
2023-04-18T07:23:38.693Z,10.00
2023-04-18T07:26:06.809Z,8.80
2023-04-18T07:28:34.985Z,9.40
2023-04-18T07:31:07.451Z,11.00
2023-04-18T07:33:36.817Z,9.10
2023-04-18T07:39:07.034Z,8.80
2023-04-18T07:41:35.445Z,8.10
2023-04-18T07:44:03.487Z,7.80
2023-04-18T07:46:32.646Z,8.10
2023-04-18T07:49:02.628Z,7.80
2023-04-18T07:51:34.589Z,8.60
2023-04-18T07:54:03.172Z,8.10
2023-04-18T07:56:31.194Z,8.30
2023-04-18T07:58:59.236Z,8.20
2023-04-18T08:01:27.791Z,6.70
2023-04-18T08:03:58.064Z,9.80
2023-04-18T08:06:27.192Z,9.30
2023-04-18T08:08:55.116Z,8.70
2023-04-18T08:11:23.589Z,8.10
2023-04-18T08:13:51.688Z,8.10
2023-04-18T08:16:21.398Z,8.90
2023-04-18T08:18:49.641Z,9.40
2023-04-18T08:21:19.546Z,7.50
2023-04-18T08:23:48.854Z,8.70
2023-04-18T08:26:17.347Z,8.90
2023-04-18T08:28:46.554Z,8.60
2023-04-18T08:31:15.570Z,7.30
2023-04-18T08:33:43.700Z,9.10
2023-04-18T08:36:12.228Z,7.40
2023-04-18T08:38:40.246Z,9.00
2023-04-18T08:41:08.676Z,9.10
2023-04-18T08:43:37.752Z,9.20
2023-04-18T08:46:05.831Z,9.00
2023-04-18T08:48:33.773Z,9.40
2023-04-18T08:51:02.455Z,9.80
2023-04-18T08:53:32.839Z,9.00
2023-04-18T08:56:01.664Z,9.30
2023-04-18T08:58:32.504Z,7.70
2023-04-18T09:01:01.132Z,7.80
2023-04-18T09:03:37.894Z,9.60
2023-04-18T09:06:19.238Z,9.40
2023-04-18T09:08:59.295Z,9.00
2023-04-18T09:11:31.900Z,7.30
2023-04-18T09:14:00.144Z,7.50
2023-04-18T09:16:28.282Z,7.90
2023-04-18T09:19:13.595Z,7.20
2023-04-18T09:21:44.693Z,8.00
2023-04-18T09:24:24.427Z,8.80
2023-04-18T09:26:57.111Z,7.80
2023-04-18T09:29:50.326Z,8.30
2023-04-18T09:32:29.694Z,9.50
2023-04-18T09:35:04.589Z,8.00
2023-04-18T09:37:33.283Z,8.80
2023-04-18T09:40:01.449Z,6.80
2023-04-18T09:42:31.425Z,9.60
2023-04-18T09:45:06.379Z,7.60
2023-04-18T09:47:35.443Z,7.50
2023-04-18T09:50:04.895Z,8.80
2023-04-18T09:52:36.307Z,8.70
2023-04-18T09:55:08.269Z,8.50
2023-04-18T09:57:37.070Z,7.60
2023-04-18T10:00:14.176Z,9.70
2023-04-18T10:03:21.463Z,10.80
2023-04-18T10:05:49.726Z,7.90
2023-04-18T10:08:17.801Z,9.30
2023-04-18T10:10:46.302Z,6.70
2023-04-18T10:13:14.485Z,6.90
2023-04-18T10:15:44.103Z,7.00
2023-04-18T10:18:16.508Z,9.10
2023-04-18T10:20:46.478Z,8.40
2023-04-18T10:23:36.333Z,8.10
2023-04-18T10:26:05.786Z,7.40
2023-04-18T10:29:01.197Z,7.70
2023-04-18T10:31:29.409Z,7.70
2023-04-18T10:36:31.118Z,9.50
2023-04-18T10:39:21.639Z,8.90
2023-04-18T10:41:51.198Z,7.50
2023-04-18T10:44:22.032Z,8.40
2023-04-18T10:46:53.074Z,8.70
2023-04-18T10:49:24.569Z,7.80
2023-04-18T10:52:01.846Z,8.20
2023-04-18T10:54:31.100Z,8.20
2023-04-18T10:57:00.236Z,8.00
2023-04-18T10:59:28.186Z,8.70
2023-04-18T11:01:59.875Z,8.30
2023-04-18T11:04:28.851Z,8.70
2023-04-18T11:06:58.623Z,6.10
2023-04-18T11:09:26.675Z,8.00
2023-04-18T11:12:09.863Z,8.60
2023-04-18T11:14:47.262Z,8.10
2023-04-18T11:17:26.294Z,10.20
2023-04-18T11:20:14.113Z,9.80
2023-04-18T11:22:51.828Z,8.90
2023-04-18T11:25:30.984Z,8.60
2023-04-18T11:28:00.251Z,5.80
2023-04-18T11:30:37.794Z,8.30
2023-04-18T11:33:14.773Z,6.40
2023-04-18T11:35:46.179Z,9.10
2023-04-18T11:38:15.101Z,7.90
2023-04-18T11:40:49.855Z,8.10
2023-04-18T11:43:22.440Z,7.50
2023-04-18T11:45:57.818Z,9.30
2023-04-18T11:48:39.184Z,7.50
2023-04-18T11:51:08.610Z,10.00
2023-04-18T11:53:38.584Z,9.90
2023-04-18T11:56:07.122Z,9.80
2023-04-18T11:58:36.454Z,7.50
2023-04-18T12:01:23.825Z,8.00
2023-04-18T12:04:02.484Z,8.90
2023-04-18T12:06:50.172Z,10.80
2023-04-18T12:09:18.522Z,9.60
2023-04-18T12:12:01.219Z,9.40
2023-04-18T12:14:29.677Z,8.30
2023-04-18T12:16:57.714Z,9.60
2023-04-18T12:19:29.561Z,9.80
2023-04-18T12:22:01.296Z,7.60
2023-04-18T12:24:30.071Z,8.80
2023-04-18T12:27:01.165Z,8.90
2023-04-18T12:29:29.278Z,6.90
2023-04-18T12:31:57.489Z,6.60
2023-04-18T12:34:25.501Z,7.20
2023-04-18T12:36:54.036Z,8.20
2023-04-18T12:39:22.202Z,9.40
2023-04-18T12:41:53.116Z,8.30
2023-04-18T12:44:21.480Z,7.60
2023-04-18T12:46:49.690Z,7.30
2023-04-18T12:49:17.920Z,7.60
2023-04-18T12:51:46.135Z,9.60
2023-04-18T12:54:14.587Z,9.30
2023-04-18T12:56:42.794Z,6.90
2023-04-18T12:59:10.842Z,7.50
2023-04-18T13:01:39.031Z,6.00
2023-04-18T13:04:12.465Z,7.50
2023-04-18T13:06:59.057Z,7.90
2023-04-18T13:09:27.561Z,7.50
2023-04-18T13:11:56.457Z,8.50
2023-04-18T13:14:24.471Z,9.80
2023-04-18T13:16:52.911Z,7.50
2023-04-18T13:19:21.006Z,8.10
2023-04-18T13:21:53.063Z,8.30
2023-04-18T13:24:21.466Z,6.80
2023-04-18T13:26:52.386Z,5.60
2023-04-18T13:29:20.763Z,5.40
2023-04-18T13:31:48.935Z,6.50
2023-04-18T13:34:17.167Z,7.00
2023-04-18T13:36:46.466Z,7.80
2023-04-18T13:39:15.375Z,7.10
2023-04-18T13:41:45.460Z,7.80
2023-04-18T13:44:13.561Z,7.60
2023-04-18T13:46:42.455Z,8.00
2023-04-18T13:49:10.896Z,7.40
2023-04-18T13:51:41.919Z,6.70
2023-04-18T13:54:14.909Z,7.90
2023-04-18T13:56:44.558Z,7.80
2023-04-18T13:59:13.344Z,6.60
2023-04-18T14:01:42.902Z,6.40
2023-04-18T14:04:11.359Z,7.80
2023-04-18T14:06:39.650Z,7.20
2023-04-18T14:09:08.260Z,7.70
2023-04-18T14:11:36.352Z,7.90
2023-04-18T14:14:04.556Z,8.80
2023-04-18T14:16:51.886Z,6.60
2023-04-18T14:19:20.046Z,5.70
2023-04-18T14:21:48.700Z,5.30
2023-04-18T14:24:17.514Z,7.00
2023-04-18T14:26:46.289Z,7.10
2023-04-18T14:29:18.207Z,6.30
2023-04-18T14:31:47.289Z,5.80
2023-04-18T14:34:16.329Z,6.50
2023-04-18T14:36:48.709Z,7.30
2023-04-18T14:39:18.390Z,6.00
2023-04-18T14:41:47.562Z,5.60
2023-04-18T14:44:28.579Z,6.20
2023-04-18T14:47:00.535Z,6.60
2023-04-18T14:49:29.466Z,7.20
2023-04-18T14:51:58.704Z,6.70
2023-04-18T14:54:30.484Z,7.00
2023-04-18T14:57:08.064Z,6.60
2023-04-18T14:59:36.840Z,6.60
2023-04-18T15:02:05.349Z,6.20
2023-04-18T15:04:34.050Z,8.60
2023-04-18T15:07:05.544Z,8.30
2023-04-18T15:09:37.762Z,8.50
2023-04-18T15:12:06.440Z,6.60
2023-04-18T15:14:36.307Z,7.90
2023-04-18T15:17:05.796Z,6.30
2023-04-18T15:19:36.605Z,8.30
2023-04-18T15:22:05.663Z,4.60
2023-04-18T15:24:38.461Z,7.10
2023-04-18T15:27:07.954Z,6.20
2023-04-18T15:29:42.153Z,6.00
2023-04-18T15:32:16.728Z,6.00
2023-04-18T15:34:53.220Z,5.10
2023-04-18T15:37:28.169Z,6.50
2023-04-18T15:39:57.240Z,5.60
2023-04-18T15:42:27.451Z,5.80
2023-04-18T15:45:03.259Z,6.50
2023-04-18T15:47:34.961Z,6.70
2023-04-18T15:50:04.558Z,6.10
2023-04-18T15:52:40.557Z,8.20
2023-04-18T15:55:16.660Z,7.00
2023-04-18T15:57:53.270Z,8.80
2023-04-18T16:00:27.170Z,6.40
2023-04-18T16:03:07.700Z,6.00
2023-04-18T16:05:38.272Z,7.00
2023-04-18T16:08:08.940Z,7.60
2023-04-18T16:10:40.356Z,8.80
2023-04-18T16:13:12.667Z,8.50
2023-04-18T16:18:31.977Z,5.10
2023-04-18T16:21:02.668Z,10.20
2023-04-18T16:23:35.612Z,11.00
2023-04-18T16:26:09.584Z,8.90
2023-04-18T16:28:49.970Z,8.10
2023-04-18T16:31:23.973Z,8.00
2023-04-18T16:33:54.022Z,7.40
2023-04-18T16:36:22.641Z,5.80
2023-04-18T16:38:51.447Z,8.80
2023-04-18T16:41:22.652Z,7.90
2023-04-18T16:43:51.517Z,5.20
2023-04-18T16:46:22.079Z,8.20
2023-04-18T16:48:52.371Z,6.20
2023-04-18T16:51:20.960Z,7.40
2023-04-18T16:53:49.325Z,8.50
2023-04-18T16:56:18.872Z,8.10
2023-04-18T16:58:53.687Z,9.50
2023-04-18T17:01:22.563Z,6.90
2023-04-18T17:03:51.644Z,7.60
2023-04-18T17:06:23.207Z,7.10
2023-04-18T17:08:53.650Z,7.90
2023-04-18T17:11:22.073Z,7.80
2023-04-18T17:13:51.446Z,8.10
2023-04-18T17:16:20.256Z,5.50
2023-04-18T17:18:48.817Z,8.50
2023-04-18T17:21:17.713Z,6.50
2023-04-18T17:23:46.110Z,9.90
2023-04-18T17:26:14.734Z,9.70
2023-04-18T17:28:43.526Z,7.60
2023-04-18T17:31:16.084Z,6.40
2023-04-18T17:34:08.216Z,7.40
2023-04-18T17:36:59.673Z,8.10
2023-04-18T17:39:33.738Z,7.20
2023-04-18T17:42:02.434Z,10.70
2023-04-18T17:44:33.730Z,14.00
2023-04-18T17:47:07.120Z,15.60
2023-04-18T17:49:36.649Z,12.40
2023-04-18T17:52:06.108Z,10.10
2023-04-18T17:54:39.007Z,10.30
2023-04-18T17:57:15.591Z,8.20
2023-04-18T18:00:18.305Z,7.80
2023-04-18T18:02:48.113Z,7.50
2023-04-18T18:05:24.154Z,8.20
2023-04-18T18:08:02.416Z,14.60
2023-04-18T18:10:32.797Z,11.80
2023-04-18T18:13:04.847Z,10.10
2023-04-18T18:15:33.110Z,9.20
2023-04-18T18:18:02.435Z,10.00
2023-04-18T18:20:31.112Z,8.90
2023-04-18T18:23:06.003Z,8.30
2023-04-18T18:25:41.186Z,10.20
2023-04-18T18:28:14.098Z,8.90
2023-04-18T18:30:46.340Z,7.10
2023-04-18T18:33:15.088Z,8.70
2023-04-18T18:35:46.978Z,6.10
2023-04-18T18:38:16.174Z,7.70
2023-04-18T18:40:45.318Z,8.30
2023-04-18T18:43:14.004Z,10.40
2023-04-18T18:45:42.318Z,8.20
2023-04-18T18:48:10.900Z,8.70
2023-04-18T18:50:41.176Z,7.00
2023-04-18T18:53:10.662Z,6.50
2023-04-18T18:55:39.004Z,8.70
2023-04-18T18:58:08.461Z,6.40
2023-04-18T19:00:36.871Z,6.00
2023-04-18T19:03:06.056Z,5.90
2023-04-18T19:05:34.546Z,6.30
2023-04-18T19:08:06.658Z,6.60
2023-04-18T19:10:35.076Z,5.20
2023-04-18T19:13:03.955Z,5.20
2023-04-18T19:15:32.111Z,6.10
2023-04-18T19:18:06.861Z,6.50
2023-04-18T19:20:35.110Z,6.10
2023-04-18T19:23:03.391Z,5.00
2023-04-18T19:25:31.530Z,5.80
2023-04-18T19:27:59.506Z,5.30
2023-04-18T19:30:27.621Z,5.30
2023-04-18T19:32:55.590Z,5.30
2023-04-18T19:35:23.737Z,4.80
2023-04-18T19:37:51.848Z,5.00
2023-04-18T19:40:20.176Z,5.00
2023-04-18T19:42:48.058Z,4.30
2023-04-18T19:45:16.128Z,4.90
2023-04-18T19:47:45.073Z,4.50
2023-04-18T19:50:13.409Z,4.40
2023-04-18T19:52:41.529Z,3.20
2023-04-18T19:55:10.081Z,5.00
2023-04-18T19:57:40.008Z,4.50
2023-04-18T20:00:09.385Z,3.80
2023-04-18T20:02:42.309Z,4.80
2023-04-18T20:05:11.492Z,3.80
2023-04-18T20:07:39.800Z,4.60
2023-04-18T20:10:09.234Z,2.80
2023-04-18T20:12:37.424Z,3.20
2023-04-18T20:15:06.072Z,3.70
2023-04-18T20:17:34.932Z,2.60
2023-04-18T20:20:04.808Z,2.40
2023-04-18T20:22:32.800Z,2.70
2023-04-18T20:25:01.748Z,2.90
2023-04-18T20:27:32.471Z,3.10
2023-04-18T20:30:00.499Z,3.80
2023-04-18T20:32:28.645Z,3.20
2023-04-18T20:34:58.978Z,2.60
2023-04-18T20:37:27.789Z,2.80
2023-04-18T20:40:00.261Z,2.60
2023-04-18T20:42:28.463Z,2.50
2023-04-18T20:44:59.000Z,3.10
2023-04-18T20:47:27.998Z,3.00
2023-04-18T20:49:56.730Z,3.10
2023-04-18T20:52:24.705Z,2.20
2023-04-18T20:54:52.722Z,2.40
2023-04-18T20:57:20.782Z,2.20
2023-04-18T20:59:48.810Z,2.60
2023-04-18T21:02:16.914Z,2.60
2023-04-18T21:04:47.108Z,2.60
2023-04-18T21:07:16.910Z,2.70
2023-04-18T21:09:45.065Z,2.90
2023-04-18T21:12:13.583Z,1.90
2023-04-18T21:14:41.618Z,2.00
2023-04-18T21:17:11.063Z,2.30
2023-04-18T21:19:39.037Z,2.20
2023-04-18T21:22:07.163Z,2.00
2023-04-18T21:24:35.371Z,2.10
2023-04-18T21:27:03.442Z,2.30
2023-04-18T21:29:31.514Z,2.10
2023-04-18T21:31:59.544Z,2.20
2023-04-18T21:34:27.553Z,2.50
2023-04-18T21:36:55.583Z,1.80
2023-04-18T21:39:23.562Z,2.10
2023-04-18T21:41:51.767Z,2.70
2023-04-18T21:44:19.985Z,2.30
2023-04-18T21:46:47.952Z,1.80
2023-04-18T21:49:16.161Z,1.70
2023-04-18T21:51:45.155Z,1.90
2023-04-18T21:54:15.287Z,2.10
2023-04-18T21:56:47.536Z,2.50
2023-04-18T21:59:15.577Z,2.40
2023-04-18T22:01:44.074Z,2.10
2023-04-18T22:04:12.451Z,2.00
2023-04-18T22:06:41.774Z,1.70
2023-04-18T22:09:09.842Z,2.30
2023-04-18T22:11:38.802Z,2.30
2023-04-18T22:14:07.148Z,2.80
2023-04-18T22:16:35.373Z,2.90
2023-04-18T22:19:04.552Z,1.60
2023-04-18T22:21:32.700Z,1.90
2023-04-18T22:24:00.713Z,1.90
2023-04-18T22:26:28.844Z,2.30
2023-04-18T22:28:56.907Z,1.80
2023-04-18T22:31:25.232Z,1.60
2023-04-18T22:33:53.538Z,1.80
2023-04-18T22:36:23.879Z,1.50
2023-04-18T22:38:51.840Z,1.90
2023-04-18T22:41:19.850Z,1.50
2023-04-18T22:43:47.904Z,1.60
2023-04-18T22:46:16.027Z,2.20
2023-04-18T22:48:45.079Z,2.10
2023-04-18T22:51:14.947Z,1.80
2023-04-18T22:53:44.085Z,2.00
2023-04-18T22:56:14.141Z,1.40
2023-04-18T22:58:42.287Z,1.40
2023-04-18T23:01:10.748Z,2.40
2023-04-18T23:03:41.860Z,1.70
2023-04-18T23:06:10.053Z,2.90
2023-04-18T23:08:38.066Z,2.10
2023-04-18T23:11:06.150Z,2.30
2023-04-18T23:13:34.168Z,2.50
2023-04-18T23:16:02.202Z,2.20
2023-04-18T23:18:30.332Z,2.80
2023-04-18T23:20:59.900Z,1.50
2023-04-18T23:23:27.875Z,2.00
2023-04-18T23:25:55.849Z,2.30
2023-04-18T23:28:23.990Z,2.90
2023-04-18T23:30:52.691Z,2.30
2023-04-18T23:33:20.666Z,2.80
2023-04-18T23:35:48.627Z,2.00
2023-04-18T23:38:16.620Z,2.90
2023-04-18T23:40:44.493Z,2.20
2023-04-18T23:43:12.475Z,2.10
2023-04-18T23:45:40.443Z,1.90
2023-04-18T23:48:08.387Z,2.30
2023-04-18T23:50:36.481Z,2.70
2023-04-18T23:53:04.616Z,3.00
2023-04-18T23:55:32.578Z,1.90
2023-04-18T23:58:00.844Z,3.10
